sensor_id;sensor_type;location;lat;lon;timestamp;P1;durP1;ratioP1;P2;durP2;ratioP2
60859;SDS011;46694;54.382;9.708;2022-09-01T00:00:25;5.60;;;0.67;;
60859;SDS011;46694;54.382;9.708;2022-09-01T00:03:07;8.10;;;0.97;;
60859;SDS011;46694;54.382;9.708;2022-09-01T00:05:50;5.47;;;0.60;;
60859;SDS011;46694;54.382;9.708;2022-09-01T00:08:32;4.60;;;0.60;;
60859;SDS011;46694;54.382;9.708;2022-09-01T00:11:12;5.33;;;0.90;;
60859;SDS011;46694;54.382;9.708;2022-09-01T00:13:52;5.57;;;0.80;;
60859;SDS011;46694;54.382;9.708;2022-09-01T00:16:33;5.70;;;0.87;;
60859;SDS011;46694;54.382;9.708;2022-09-01T00:19:13;7.00;;;0.87;;
60859;SDS011;46694;54.382;9.708;2022-09-01T00:21:52;10.10;;;1.53;;
60859;SDS011;46694;54.382;9.708;2022-09-01T00:24:33;5.73;;;0.97;;
60859;SDS011;46694;54.382;9.708;2022-09-01T00:27:13;4.50;;;0.80;;
60859;SDS011;46694;54.382;9.708;2022-09-01T00:29:53;5.93;;;0.83;;
60859;SDS011;46694;54.382;9.708;2022-09-01T00:32:32;5.47;;;0.80;;
60859;SDS011;46694;54.382;9.708;2022-09-01T00:35:13;7.97;;;1.00;;
60859;SDS011;46694;54.382;9.708;2022-09-01T00:37:54;4.47;;;0.87;;
60859;SDS011;46694;54.382;9.708;2022-09-01T00:40:34;3.50;;;0.83;;
60859;SDS011;46694;54.382;9.708;2022-09-01T00:43:34;11.83;;;1.00;;
60859;SDS011;46694;54.382;9.708;2022-09-01T00:46:21;4.20;;;0.83;;
60859;SDS011;46694;54.382;9.708;2022-09-01T00:51:50;4.10;;;0.70;;
60859;SDS011;46694;54.382;9.708;2022-09-01T00:54:35;4.40;;;1.03;;
60859;SDS011;46694;54.382;9.708;2022-09-01T00:57:20;4.70;;;0.80;;
60859;SDS011;46694;54.382;9.708;2022-09-01T01:00:11;11.20;;;1.03;;
60859;SDS011;46694;54.382;9.708;2022-09-01T01:03:01;3.03;;;0.60;;
60859;SDS011;46694;54.382;9.708;2022-09-01T01:05:45;3.67;;;0.90;;
60859;SDS011;46694;54.382;9.708;2022-09-01T01:08:33;4.30;;;0.93;;
60859;SDS011;46694;54.382;9.708;2022-09-01T01:11:15;9.60;;;0.90;;
60859;SDS011;46694;54.382;9.708;2022-09-01T01:13:59;6.80;;;0.90;;
60859;SDS011;46694;54.382;9.708;2022-09-01T01:16:50;4.13;;;1.10;;
60859;SDS011;46694;54.382;9.708;2022-09-01T01:22:40;3.30;;;0.70;;
60859;SDS011;46694;54.382;9.708;2022-09-01T01:25:42;6.07;;;1.00;;
60859;SDS011;46694;54.382;9.708;2022-09-01T01:31:41;1.97;;;0.90;;
60859;SDS011;46694;54.382;9.708;2022-09-01T01:34:21;3.80;;;0.80;;
60859;SDS011;46694;54.382;9.708;2022-09-01T01:37:00;4.20;;;0.87;;
60859;SDS011;46694;54.382;9.708;2022-09-01T01:39:40;1.90;;;0.87;;
60859;SDS011;46694;54.382;9.708;2022-09-01T01:42:22;1.87;;;1.00;;
60859;SDS011;46694;54.382;9.708;2022-09-01T01:45:04;1.37;;;0.73;;
60859;SDS011;46694;54.382;9.708;2022-09-01T01:47:47;4.37;;;0.83;;
60859;SDS011;46694;54.382;9.708;2022-09-01T01:50:31;1.47;;;0.87;;
60859;SDS011;46694;54.382;9.708;2022-09-01T01:53:13;1.77;;;0.90;;
60859;SDS011;46694;54.382;9.708;2022-09-01T01:55:55;4.73;;;1.00;;
60859;SDS011;46694;54.382;9.708;2022-09-01T01:58:36;1.97;;;0.90;;
60859;SDS011;46694;54.382;9.708;2022-09-01T02:01:17;2.50;;;0.83;;
60859;SDS011;46694;54.382;9.708;2022-09-01T02:03:58;5.30;;;0.90;;
60859;SDS011;46694;54.382;9.708;2022-09-01T02:06:40;1.47;;;0.70;;
60859;SDS011;46694;54.382;9.708;2022-09-01T02:09:23;2.43;;;0.77;;
60859;SDS011;46694;54.382;9.708;2022-09-01T02:12:03;5.43;;;1.13;;
60859;SDS011;46694;54.382;9.708;2022-09-01T02:14:45;1.33;;;1.00;;
60859;SDS011;46694;54.382;9.708;2022-09-01T02:17:25;1.10;;;0.57;;
60859;SDS011;46694;54.382;9.708;2022-09-01T02:20:05;2.03;;;0.80;;
60859;SDS011;46694;54.382;9.708;2022-09-01T02:22:45;2.10;;;1.13;;
60859;SDS011;46694;54.382;9.708;2022-09-01T02:25:25;0.80;;;0.70;;
60859;SDS011;46694;54.382;9.708;2022-09-01T02:28:05;2.37;;;1.30;;
60859;SDS011;46694;54.382;9.708;2022-09-01T02:30:48;1.43;;;0.90;;
60859;SDS011;46694;54.382;9.708;2022-09-01T02:33:30;3.43;;;1.10;;
60859;SDS011;46694;54.382;9.708;2022-09-01T02:36:12;2.00;;;0.93;;
60859;SDS011;46694;54.382;9.708;2022-09-01T02:38:55;3.23;;;1.20;;
60859;SDS011;46694;54.382;9.708;2022-09-01T02:41:34;4.30;;;1.03;;
60859;SDS011;46694;54.382;9.708;2022-09-01T02:44:14;2.03;;;1.20;;
60859;SDS011;46694;54.382;9.708;2022-09-01T02:46:59;0.80;;;0.73;;
60859;SDS011;46694;54.382;9.708;2022-09-01T02:49:39;1.03;;;1.03;;
60859;SDS011;46694;54.382;9.708;2022-09-01T02:52:20;1.50;;;1.40;;
60859;SDS011;46694;54.382;9.708;2022-09-01T02:55:00;2.67;;;1.57;;
60859;SDS011;46694;54.382;9.708;2022-09-01T02:57:41;5.60;;;1.27;;
60859;SDS011;46694;54.382;9.708;2022-09-01T03:00:20;1.57;;;1.30;;
60859;SDS011;46694;54.382;9.708;2022-09-01T03:03:06;1.30;;;1.20;;
60859;SDS011;46694;54.382;9.708;2022-09-01T03:05:47;0.70;;;0.70;;
60859;SDS011;46694;54.382;9.708;2022-09-01T03:08:33;1.47;;;1.23;;
60859;SDS011;46694;54.382;9.708;2022-09-01T03:11:17;1.90;;;1.40;;
60859;SDS011;46694;54.382;9.708;2022-09-01T03:13:57;1.43;;;1.20;;
60859;SDS011;46694;54.382;9.708;2022-09-01T03:16:37;2.17;;;1.17;;
60859;SDS011;46694;54.382;9.708;2022-09-01T03:19:18;1.37;;;1.10;;
60859;SDS011;46694;54.382;9.708;2022-09-01T03:21:57;1.20;;;1.10;;
60859;SDS011;46694;54.382;9.708;2022-09-01T03:24:37;1.20;;;1.10;;
60859;SDS011;46694;54.382;9.708;2022-09-01T03:27:17;1.30;;;1.20;;
60859;SDS011;46694;54.382;9.708;2022-09-01T03:29:56;1.83;;;1.10;;
60859;SDS011;46694;54.382;9.708;2022-09-01T03:32:36;4.93;;;0.90;;
60859;SDS011;46694;54.382;9.708;2022-09-01T03:35:16;0.97;;;0.87;;
60859;SDS011;46694;54.382;9.708;2022-09-01T03:37:55;2.13;;;1.07;;
60859;SDS011;46694;54.382;9.708;2022-09-01T03:40:38;5.73;;;1.47;;
60859;SDS011;46694;54.382;9.708;2022-09-01T03:43:18;1.43;;;1.30;;
60859;SDS011;46694;54.382;9.708;2022-09-01T03:46:02;2.20;;;1.03;;
60859;SDS011;46694;54.382;9.708;2022-09-01T03:48:42;1.63;;;1.20;;
60859;SDS011;46694;54.382;9.708;2022-09-01T03:51:22;2.83;;;1.33;;
60859;SDS011;46694;54.382;9.708;2022-09-01T03:54:02;2.20;;;1.70;;
60859;SDS011;46694;54.382;9.708;2022-09-01T03:56:42;2.43;;;1.00;;
60859;SDS011;46694;54.382;9.708;2022-09-01T03:59:22;3.27;;;1.60;;
60859;SDS011;46694;54.382;9.708;2022-09-01T04:02:03;2.63;;;1.37;;
60859;SDS011;46694;54.382;9.708;2022-09-01T04:04:43;1.20;;;1.10;;
60859;SDS011;46694;54.382;9.708;2022-09-01T04:07:22;5.13;;;1.70;;
60859;SDS011;46694;54.382;9.708;2022-09-01T04:10:03;4.77;;;1.70;;
60859;SDS011;46694;54.382;9.708;2022-09-01T04:12:44;2.90;;;1.60;;
60859;SDS011;46694;54.382;9.708;2022-09-01T04:15:25;5.40;;;1.50;;
60859;SDS011;46694;54.382;9.708;2022-09-01T04:18:06;3.10;;;2.47;;
60859;SDS011;46694;54.382;9.708;2022-09-01T04:20:52;3.07;;;1.63;;
60859;SDS011;46694;54.382;9.708;2022-09-01T04:23:37;2.07;;;1.30;;
60859;SDS011;46694;54.382;9.708;2022-09-01T04:26:16;3.50;;;1.70;;
60859;SDS011;46694;54.382;9.708;2022-09-01T04:28:57;4.07;;;1.53;;
60859;SDS011;46694;54.382;9.708;2022-09-01T04:31:38;3.13;;;1.20;;
60859;SDS011;46694;54.382;9.708;2022-09-01T04:34:20;4.03;;;1.50;;
60859;SDS011;46694;54.382;9.708;2022-09-01T04:37:11;2.53;;;1.10;;
60859;SDS011;46694;54.382;9.708;2022-09-01T04:39:56;5.90;;;1.67;;
60859;SDS011;46694;54.382;9.708;2022-09-01T04:42:36;2.13;;;1.47;;
60859;SDS011;46694;54.382;9.708;2022-09-01T04:45:15;8.53;;;1.53;;
60859;SDS011;46694;54.382;9.708;2022-09-01T04:47:57;2.77;;;1.03;;
60859;SDS011;46694;54.382;9.708;2022-09-01T04:50:39;2.03;;;1.20;;
60859;SDS011;46694;54.382;9.708;2022-09-01T04:53:18;9.90;;;1.30;;
60859;SDS011;46694;54.382;9.708;2022-09-01T04:56:01;7.50;;;1.77;;
60859;SDS011;46694;54.382;9.708;2022-09-01T04:58:42;12.03;;;1.33;;
60859;SDS011;46694;54.382;9.708;2022-09-01T05:01:23;2.03;;;1.03;;
60859;SDS011;46694;54.382;9.708;2022-09-01T05:04:05;12.70;;;1.30;;
60859;SDS011;46694;54.382;9.708;2022-09-01T05:06:46;5.40;;;2.70;;
60859;SDS011;46694;54.382;9.708;2022-09-01T05:09:35;8.87;;;1.90;;
60859;SDS011;46694;54.382;9.708;2022-09-01T05:12:16;6.53;;;1.87;;
60859;SDS011;46694;54.382;9.708;2022-09-01T05:14:59;5.80;;;2.07;;
60859;SDS011;46694;54.382;9.708;2022-09-01T05:17:44;1.37;;;1.30;;
60859;SDS011;46694;54.382;9.708;2022-09-01T05:20:23;2.30;;;1.77;;
60859;SDS011;46694;54.382;9.708;2022-09-01T05:23:03;4.00;;;1.97;;
60859;SDS011;46694;54.382;9.708;2022-09-01T05:25:42;4.30;;;2.70;;
60859;SDS011;46694;54.382;9.708;2022-09-01T05:28:23;3.33;;;2.20;;
60859;SDS011;46694;54.382;9.708;2022-09-01T05:31:05;2.63;;;2.20;;
60859;SDS011;46694;54.382;9.708;2022-09-01T05:33:45;3.07;;;1.50;;
60859;SDS011;46694;54.382;9.708;2022-09-01T05:36:28;5.90;;;1.73;;
60859;SDS011;46694;54.382;9.708;2022-09-01T05:39:11;13.67;;;2.23;;
60859;SDS011;46694;54.382;9.708;2022-09-01T05:41:50;3.90;;;1.30;;
60859;SDS011;46694;54.382;9.708;2022-09-01T05:44:31;7.73;;;1.93;;
60859;SDS011;46694;54.382;9.708;2022-09-01T05:47:11;2.90;;;1.40;;
60859;SDS011;46694;54.382;9.708;2022-09-01T05:49:51;4.63;;;1.50;;
60859;SDS011;46694;54.382;9.708;2022-09-01T05:52:31;3.67;;;1.90;;
60859;SDS011;46694;54.382;9.708;2022-09-01T05:55:13;1.63;;;1.20;;
60859;SDS011;46694;54.382;9.708;2022-09-01T05:57:52;1.53;;;1.30;;
60859;SDS011;46694;54.382;9.708;2022-09-01T06:00:32;3.07;;;1.80;;
60859;SDS011;46694;54.382;9.708;2022-09-01T06:03:16;2.37;;;1.37;;
60859;SDS011;46694;54.382;9.708;2022-09-01T06:06:00;2.13;;;0.90;;
60859;SDS011;46694;54.382;9.708;2022-09-01T06:08:43;3.30;;;1.00;;
60859;SDS011;46694;54.382;9.708;2022-09-01T06:11:26;8.33;;;1.10;;
60859;SDS011;46694;54.382;9.708;2022-09-01T06:14:09;9.10;;;1.57;;
60859;SDS011;46694;54.382;9.708;2022-09-01T06:16:49;9.00;;;0.90;;
60859;SDS011;46694;54.382;9.708;2022-09-01T06:19:30;5.93;;;0.93;;
60859;SDS011;46694;54.382;9.708;2022-09-01T06:22:11;5.90;;;0.80;;
60859;SDS011;46694;54.382;9.708;2022-09-01T06:24:50;6.30;;;1.00;;
60859;SDS011;46694;54.382;9.708;2022-09-01T06:27:32;8.80;;;1.00;;
60859;SDS011;46694;54.382;9.708;2022-09-01T06:30:16;6.90;;;0.87;;
60859;SDS011;46694;54.382;9.708;2022-09-01T06:33:02;5.60;;;0.90;;
60859;SDS011;46694;54.382;9.708;2022-09-01T06:35:46;5.97;;;1.00;;
60859;SDS011;46694;54.382;9.708;2022-09-01T06:38:26;5.53;;;0.70;;
60859;SDS011;46694;54.382;9.708;2022-09-01T06:41:07;4.93;;;0.70;;
60859;SDS011;46694;54.382;9.708;2022-09-01T06:43:50;3.70;;;0.60;;
60859;SDS011;46694;54.382;9.708;2022-09-01T06:46:33;4.63;;;0.97;;
60859;SDS011;46694;54.382;9.708;2022-09-01T06:49:12;5.00;;;1.23;;
60859;SDS011;46694;54.382;9.708;2022-09-01T06:51:52;4.00;;;0.70;;
60859;SDS011;46694;54.382;9.708;2022-09-01T06:54:31;3.30;;;0.93;;
60859;SDS011;46694;54.382;9.708;2022-09-01T06:57:11;4.03;;;0.90;;
60859;SDS011;46694;54.382;9.708;2022-09-01T06:59:51;2.60;;;0.70;;
60859;SDS011;46694;54.382;9.708;2022-09-01T07:02:31;2.70;;;0.60;;
60859;SDS011;46694;54.382;9.708;2022-09-01T07:05:11;4.10;;;0.90;;
60859;SDS011;46694;54.382;9.708;2022-09-01T07:07:56;2.83;;;0.70;;
60859;SDS011;46694;54.382;9.708;2022-09-01T07:10:40;2.60;;;0.70;;
60859;SDS011;46694;54.382;9.708;2022-09-01T07:13:27;3.60;;;0.80;;
60859;SDS011;46694;54.382;9.708;2022-09-01T07:16:08;4.10;;;0.60;;
60859;SDS011;46694;54.382;9.708;2022-09-01T07:19:01;2.30;;;0.60;;
60859;SDS011;46694;54.382;9.708;2022-09-01T07:21:42;2.23;;;0.43;;
60859;SDS011;46694;54.382;9.708;2022-09-01T07:24:22;2.60;;;0.87;;
60859;SDS011;46694;54.382;9.708;2022-09-01T07:27:03;4.60;;;0.60;;
60859;SDS011;46694;54.382;9.708;2022-09-01T07:29:43;6.37;;;1.17;;
60859;SDS011;46694;54.382;9.708;2022-09-01T07:32:23;3.90;;;1.30;;
60859;SDS011;46694;54.382;9.708;2022-09-01T07:35:03;6.73;;;1.73;;
60859;SDS011;46694;54.382;9.708;2022-09-01T07:37:46;4.50;;;1.90;;
60859;SDS011;46694;54.382;9.708;2022-09-01T07:40:26;6.80;;;1.57;;
60859;SDS011;46694;54.382;9.708;2022-09-01T07:43:08;4.10;;;0.80;;
60859;SDS011;46694;54.382;9.708;2022-09-01T07:45:55;3.10;;;0.50;;
60859;SDS011;46694;54.382;9.708;2022-09-01T07:48:37;2.17;;;0.77;;
60859;SDS011;46694;54.382;9.708;2022-09-01T07:51:17;2.50;;;0.77;;
60859;SDS011;46694;54.382;9.708;2022-09-01T07:53:59;2.37;;;0.80;;
60859;SDS011;46694;54.382;9.708;2022-09-01T07:56:39;5.53;;;1.10;;
60859;SDS011;46694;54.382;9.708;2022-09-01T07:59:19;4.03;;;1.20;;
60859;SDS011;46694;54.382;9.708;2022-09-01T08:01:59;5.03;;;1.17;;
60859;SDS011;46694;54.382;9.708;2022-09-01T08:04:43;4.30;;;0.80;;
60859;SDS011;46694;54.382;9.708;2022-09-01T08:07:23;2.57;;;0.73;;
60859;SDS011;46694;54.382;9.708;2022-09-01T08:10:06;4.03;;;1.33;;
60859;SDS011;46694;54.382;9.708;2022-09-01T08:12:47;4.13;;;0.87;;
60859;SDS011;46694;54.382;9.708;2022-09-01T08:15:27;5.80;;;1.13;;
60859;SDS011;46694;54.382;9.708;2022-09-01T08:18:06;8.00;;;0.73;;
60859;SDS011;46694;54.382;9.708;2022-09-01T08:20:47;8.50;;;0.83;;
60859;SDS011;46694;54.382;9.708;2022-09-01T08:23:26;9.40;;;0.73;;
60859;SDS011;46694;54.382;9.708;2022-09-01T08:26:07;3.47;;;1.13;;
60859;SDS011;46694;54.382;9.708;2022-09-01T08:28:50;3.87;;;1.27;;
60859;SDS011;46694;54.382;9.708;2022-09-01T08:31:30;5.00;;;1.00;;
60859;SDS011;46694;54.382;9.708;2022-09-01T08:34:10;7.93;;;1.10;;
60859;SDS011;46694;54.382;9.708;2022-09-01T08:36:50;4.30;;;0.90;;
60859;SDS011;46694;54.382;9.708;2022-09-01T08:39:30;5.93;;;0.80;;
60859;SDS011;46694;54.382;9.708;2022-09-01T08:45:20;7.37;;;0.77;;
60859;SDS011;46694;54.382;9.708;2022-09-01T08:51:08;6.57;;;1.00;;
60859;SDS011;46694;54.382;9.708;2022-09-01T08:57:00;10.43;;;1.30;;
60859;SDS011;46694;54.382;9.708;2022-09-01T08:59:49;6.63;;;0.70;;
60859;SDS011;46694;54.382;9.708;2022-09-01T09:06:02;7.43;;;0.80;;
60859;SDS011;46694;54.382;9.708;2022-09-01T09:12:06;4.50;;;0.83;;
60859;SDS011;46694;54.382;9.708;2022-09-01T09:21:56;10.40;;;1.17;;
60859;SDS011;46694;54.382;9.708;2022-09-01T09:27:32;11.50;;;1.30;;
60859;SDS011;46694;54.382;9.708;2022-09-01T09:30:22;3.70;;;0.70;;
60859;SDS011;46694;54.382;9.708;2022-09-01T09:33:05;3.27;;;0.77;;
60859;SDS011;46694;54.382;9.708;2022-09-01T09:35:48;6.43;;;1.00;;
60859;SDS011;46694;54.382;9.708;2022-09-01T09:38:28;1.60;;;0.63;;
60859;SDS011;46694;54.382;9.708;2022-09-01T09:43:59;1.37;;;0.70;;
60859;SDS011;46694;54.382;9.708;2022-09-01T09:46:43;1.00;;;0.73;;
60859;SDS011;46694;54.382;9.708;2022-09-01T09:49:28;1.43;;;0.40;;
60859;SDS011;46694;54.382;9.708;2022-09-01T09:59:00;2.17;;;0.60;;
60859;SDS011;46694;54.382;9.708;2022-09-01T10:08:03;1.50;;;0.60;;
60859;SDS011;46694;54.382;9.708;2022-09-01T10:10:52;1.30;;;0.70;;
60859;SDS011;46694;54.382;9.708;2022-09-01T10:13:32;0.83;;;0.77;;
60859;SDS011;46694;54.382;9.708;2022-09-01T10:16:15;1.07;;;0.70;;
60859;SDS011;46694;54.382;9.708;2022-09-01T10:19:04;0.70;;;0.60;;
60859;SDS011;46694;54.382;9.708;2022-09-01T10:21:49;7.80;;;0.60;;
60859;SDS011;46694;54.382;9.708;2022-09-01T10:24:31;1.70;;;0.70;;
60859;SDS011;46694;54.382;9.708;2022-09-01T10:30:16;2.40;;;0.60;;
60859;SDS011;46694;54.382;9.708;2022-09-01T10:32:58;0.70;;;0.60;;
60859;SDS011;46694;54.382;9.708;2022-09-01T10:35:40;6.30;;;0.77;;
60859;SDS011;46694;54.382;9.708;2022-09-01T10:38:26;1.13;;;0.40;;
60859;SDS011;46694;54.382;9.708;2022-09-01T10:41:07;0.80;;;0.50;;
60859;SDS011;46694;54.382;9.708;2022-09-01T10:43:47;0.70;;;0.53;;
60859;SDS011;46694;54.382;9.708;2022-09-01T10:52:08;0.90;;;0.77;;
60859;SDS011;46694;54.382;9.708;2022-09-01T10:54:55;2.40;;;0.70;;
60859;SDS011;46694;54.382;9.708;2022-09-01T10:57:43;1.03;;;0.70;;
60859;SDS011;46694;54.382;9.708;2022-09-01T11:08:41;0.80;;;0.50;;
60859;SDS011;46694;54.382;9.708;2022-09-01T11:17:38;0.80;;;0.70;;
60859;SDS011;46694;54.382;9.708;2022-09-01T11:20:37;5.37;;;0.70;;
60859;SDS011;46694;54.382;9.708;2022-09-01T11:23:23;0.70;;;0.50;;
60859;SDS011;46694;54.382;9.708;2022-09-01T11:29:48;0.80;;;0.70;;
60859;SDS011;46694;54.382;9.708;2022-09-01T11:32:33;0.60;;;0.40;;
60859;SDS011;46694;54.382;9.708;2022-09-01T11:35:19;1.10;;;0.67;;
60859;SDS011;46694;54.382;9.708;2022-09-01T11:38:02;2.40;;;0.40;;
60859;SDS011;46694;54.382;9.708;2022-09-01T11:40:52;1.67;;;0.60;;
60859;SDS011;46694;54.382;9.708;2022-09-01T11:43:34;1.87;;;0.60;;
60859;SDS011;46694;54.382;9.708;2022-09-01T11:46:21;1.07;;;0.60;;
60859;SDS011;46694;54.382;9.708;2022-09-01T11:49:22;1.03;;;0.50;;
60859;SDS011;46694;54.382;9.708;2022-09-01T11:52:12;4.57;;;0.50;;
60859;SDS011;46694;54.382;9.708;2022-09-01T11:54:55;7.57;;;0.70;;
60859;SDS011;46694;54.382;9.708;2022-09-01T11:57:38;1.20;;;0.53;;
60859;SDS011;46694;54.382;9.708;2022-09-01T12:00:25;0.90;;;0.43;;
60859;SDS011;46694;54.382;9.708;2022-09-01T12:03:27;4.10;;;0.50;;
60859;SDS011;46694;54.382;9.708;2022-09-01T12:06:08;1.67;;;0.60;;
60859;SDS011;46694;54.382;9.708;2022-09-01T12:08:51;1.33;;;0.60;;
60859;SDS011;46694;54.382;9.708;2022-09-01T12:11:37;0.90;;;0.50;;
60859;SDS011;46694;54.382;9.708;2022-09-01T12:14:20;2.50;;;0.60;;
60859;SDS011;46694;54.382;9.708;2022-09-01T12:17:02;0.97;;;0.60;;
60859;SDS011;46694;54.382;9.708;2022-09-01T12:19:43;1.10;;;0.50;;
60859;SDS011;46694;54.382;9.708;2022-09-01T12:22:23;0.60;;;0.40;;
60859;SDS011;46694;54.382;9.708;2022-09-01T12:25:03;0.70;;;0.50;;
60859;SDS011;46694;54.382;9.708;2022-09-01T12:27:43;1.33;;;0.60;;
60859;SDS011;46694;54.382;9.708;2022-09-01T12:30:24;2.40;;;0.50;;
60859;SDS011;46694;54.382;9.708;2022-09-01T12:33:08;0.70;;;0.50;;
60859;SDS011;46694;54.382;9.708;2022-09-01T12:35:51;0.70;;;0.40;;
60859;SDS011;46694;54.382;9.708;2022-09-01T12:42:06;0.70;;;0.30;;
60859;SDS011;46694;54.382;9.708;2022-09-01T12:44:57;0.60;;;0.50;;
60859;SDS011;46694;54.382;9.708;2022-09-01T12:53:11;2.03;;;0.40;;
60859;SDS011;46694;54.382;9.708;2022-09-01T12:55:59;1.93;;;0.60;;
60859;SDS011;46694;54.382;9.708;2022-09-01T12:59:30;3.07;;;0.50;;
60859;SDS011;46694;54.382;9.708;2022-09-01T13:08:18;3.03;;;0.50;;
60859;SDS011;46694;54.382;9.708;2022-09-01T13:11:04;0.70;;;0.47;;
60859;SDS011;46694;54.382;9.708;2022-09-01T13:13:47;2.83;;;0.50;;
60859;SDS011;46694;54.382;9.708;2022-09-01T13:16:26;0.60;;;0.40;;
60859;SDS011;46694;54.382;9.708;2022-09-01T13:19:06;1.50;;;0.50;;
60859;SDS011;46694;54.382;9.708;2022-09-01T13:21:46;0.90;;;0.50;;
60859;SDS011;46694;54.382;9.708;2022-09-01T13:24:25;0.83;;;0.50;;
60859;SDS011;46694;54.382;9.708;2022-09-01T13:27:05;0.60;;;0.50;;
60859;SDS011;46694;54.382;9.708;2022-09-01T13:29:45;1.13;;;0.40;;
60859;SDS011;46694;54.382;9.708;2022-09-01T13:32:25;1.90;;;0.50;;
60859;SDS011;46694;54.382;9.708;2022-09-01T13:35:05;0.70;;;0.50;;
60859;SDS011;46694;54.382;9.708;2022-09-01T13:37:45;2.23;;;0.47;;
60859;SDS011;46694;54.382;9.708;2022-09-01T13:40:25;1.10;;;0.40;;
60859;SDS011;46694;54.382;9.708;2022-09-01T13:43:05;1.30;;;0.40;;
60859;SDS011;46694;54.382;9.708;2022-09-01T13:45:44;0.90;;;0.50;;
60859;SDS011;46694;54.382;9.708;2022-09-01T13:48:24;1.30;;;0.40;;
60859;SDS011;46694;54.382;9.708;2022-09-01T13:51:06;0.67;;;0.40;;
60859;SDS011;46694;54.382;9.708;2022-09-01T13:53:50;1.10;;;0.50;;
60859;SDS011;46694;54.382;9.708;2022-09-01T13:56:30;0.60;;;0.40;;
60859;SDS011;46694;54.382;9.708;2022-09-01T13:59:10;5.70;;;0.40;;
60859;SDS011;46694;54.382;9.708;2022-09-01T14:01:49;1.23;;;0.57;;
60859;SDS011;46694;54.382;9.708;2022-09-01T14:04:29;1.30;;;0.50;;
60859;SDS011;46694;54.382;9.708;2022-09-01T14:10:32;3.43;;;0.50;;
60859;SDS011;46694;54.382;9.708;2022-09-01T14:13:16;0.60;;;0.40;;
60859;SDS011;46694;54.382;9.708;2022-09-01T14:16:01;0.90;;;0.40;;
60859;SDS011;46694;54.382;9.708;2022-09-01T14:18:48;0.60;;;0.40;;
60859;SDS011;46694;54.382;9.708;2022-09-01T14:21:28;0.80;;;0.40;;
60859;SDS011;46694;54.382;9.708;2022-09-01T14:24:07;0.70;;;0.50;;
60859;SDS011;46694;54.382;9.708;2022-09-01T14:26:47;3.23;;;0.40;;
60859;SDS011;46694;54.382;9.708;2022-09-01T14:29:28;0.90;;;0.50;;
60859;SDS011;46694;54.382;9.708;2022-09-01T14:32:07;0.63;;;0.37;;
60859;SDS011;46694;54.382;9.708;2022-09-01T14:34:47;0.70;;;0.50;;
60859;SDS011;46694;54.382;9.708;2022-09-01T14:37:27;0.70;;;0.50;;
60859;SDS011;46694;54.382;9.708;2022-09-01T14:40:08;1.80;;;0.40;;
60859;SDS011;46694;54.382;9.708;2022-09-01T14:42:52;2.50;;;0.50;;
60859;SDS011;46694;54.382;9.708;2022-09-01T14:45:32;0.60;;;0.40;;
60859;SDS011;46694;54.382;9.708;2022-09-01T14:48:11;2.43;;;0.50;;
60859;SDS011;46694;54.382;9.708;2022-09-01T14:50:56;1.73;;;0.40;;
60859;SDS011;46694;54.382;9.708;2022-09-01T14:53:36;0.70;;;0.40;;
60859;SDS011;46694;54.382;9.708;2022-09-01T14:56:16;0.60;;;0.40;;
60859;SDS011;46694;54.382;9.708;2022-09-01T14:58:56;1.83;;;0.40;;
60859;SDS011;46694;54.382;9.708;2022-09-01T15:01:38;0.60;;;0.40;;
60859;SDS011;46694;54.382;9.708;2022-09-01T15:04:18;0.80;;;0.50;;
60859;SDS011;46694;54.382;9.708;2022-09-01T15:06:57;0.60;;;0.40;;
60859;SDS011;46694;54.382;9.708;2022-09-01T15:09:37;0.90;;;0.50;;
60859;SDS011;46694;54.382;9.708;2022-09-01T15:12:17;0.80;;;0.50;;
60859;SDS011;46694;54.382;9.708;2022-09-01T15:15:00;0.60;;;0.40;;
60859;SDS011;46694;54.382;9.708;2022-09-01T15:17:40;0.77;;;0.40;;
60859;SDS011;46694;54.382;9.708;2022-09-01T15:20:20;0.80;;;0.50;;
60859;SDS011;46694;54.382;9.708;2022-09-01T15:23:21;0.90;;;0.57;;
60859;SDS011;46694;54.382;9.708;2022-09-01T15:26:03;1.00;;;0.60;;
60859;SDS011;46694;54.382;9.708;2022-09-01T15:28:43;0.80;;;0.60;;
60859;SDS011;46694;54.382;9.708;2022-09-01T15:31:23;2.60;;;0.60;;
60859;SDS011;46694;54.382;9.708;2022-09-01T15:34:07;0.80;;;0.50;;
60859;SDS011;46694;54.382;9.708;2022-09-01T15:36:47;0.70;;;0.50;;
60859;SDS011;46694;54.382;9.708;2022-09-01T15:39:27;0.70;;;0.60;;
60859;SDS011;46694;54.382;9.708;2022-09-01T15:42:07;1.30;;;0.40;;
60859;SDS011;46694;54.382;9.708;2022-09-01T15:44:47;1.83;;;0.60;;
60859;SDS011;46694;54.382;9.708;2022-09-01T15:47:28;1.40;;;0.50;;
60859;SDS011;46694;54.382;9.708;2022-09-01T15:50:09;3.23;;;0.50;;
60859;SDS011;46694;54.382;9.708;2022-09-01T15:52:52;0.70;;;0.40;;
60859;SDS011;46694;54.382;9.708;2022-09-01T15:55:40;0.70;;;0.60;;
60859;SDS011;46694;54.382;9.708;2022-09-01T15:58:22;1.10;;;0.53;;
60859;SDS011;46694;54.382;9.708;2022-09-01T16:01:02;0.70;;;0.57;;
60859;SDS011;46694;54.382;9.708;2022-09-01T16:03:41;2.87;;;0.40;;
60859;SDS011;46694;54.382;9.708;2022-09-01T16:06:24;3.43;;;0.50;;
60859;SDS011;46694;54.382;9.708;2022-09-01T16:09:05;0.60;;;0.40;;
60859;SDS011;46694;54.382;9.708;2022-09-01T16:11:45;1.13;;;0.57;;
60859;SDS011;46694;54.382;9.708;2022-09-01T16:14:24;1.40;;;0.60;;
60859;SDS011;46694;54.382;9.708;2022-09-01T16:17:06;0.70;;;0.40;;
60859;SDS011;46694;54.382;9.708;2022-09-01T16:23:40;0.60;;;0.40;;
60859;SDS011;46694;54.382;9.708;2022-09-01T16:26:26;0.60;;;0.50;;
60859;SDS011;46694;54.382;9.708;2022-09-01T16:32:16;0.70;;;0.50;;
60859;SDS011;46694;54.382;9.708;2022-09-01T16:34:59;0.70;;;0.50;;
60859;SDS011;46694;54.382;9.708;2022-09-01T16:38:07;2.50;;;0.40;;
60859;SDS011;46694;54.382;9.708;2022-09-01T16:44:17;1.10;;;0.50;;
60859;SDS011;46694;54.382;9.708;2022-09-01T16:53:30;0.70;;;0.50;;
60859;SDS011;46694;54.382;9.708;2022-09-01T17:00:19;1.10;;;0.53;;
60859;SDS011;46694;54.382;9.708;2022-09-01T17:03:17;1.10;;;0.50;;
60859;SDS011;46694;54.382;9.708;2022-09-01T17:11:51;6.93;;;0.80;;
60859;SDS011;46694;54.382;9.708;2022-09-01T17:14:39;2.83;;;0.50;;
60859;SDS011;46694;54.382;9.708;2022-09-01T17:17:30;2.60;;;0.63;;
60859;SDS011;46694;54.382;9.708;2022-09-01T17:20:21;0.80;;;0.70;;
60859;SDS011;46694;54.382;9.708;2022-09-01T17:23:10;0.63;;;0.57;;
60859;SDS011;46694;54.382;9.708;2022-09-01T17:25:57;3.33;;;0.80;;
60859;SDS011;46694;54.382;9.708;2022-09-01T17:28:42;2.83;;;0.63;;
60859;SDS011;46694;54.382;9.708;2022-09-01T17:31:52;4.33;;;0.60;;
60859;SDS011;46694;54.382;9.708;2022-09-01T17:35:16;5.63;;;0.77;;
60859;SDS011;46694;54.382;9.708;2022-09-01T17:38:11;2.40;;;0.50;;
60859;SDS011;46694;54.382;9.708;2022-09-01T18:00:17;4.37;;;0.50;;
60859;SDS011;46694;54.382;9.708;2022-09-01T18:09:27;2.93;;;0.70;;
60859;SDS011;46694;54.382;9.708;2022-09-01T18:12:13;6.30;;;0.70;;
60859;SDS011;46694;54.382;9.708;2022-09-01T18:18:04;0.90;;;0.50;;
60859;SDS011;46694;54.382;9.708;2022-09-01T18:21:01;6.60;;;0.60;;
60859;SDS011;46694;54.382;9.708;2022-09-01T18:23:44;1.53;;;0.60;;
60859;SDS011;46694;54.382;9.708;2022-09-01T18:26:27;6.43;;;0.77;;
60859;SDS011;46694;54.382;9.708;2022-09-01T18:29:10;1.63;;;0.43;;
60859;SDS011;46694;54.382;9.708;2022-09-01T18:31:52;2.13;;;0.73;;
60859;SDS011;46694;54.382;9.708;2022-09-01T18:44:25;1.03;;;0.90;;
60859;SDS011;46694;54.382;9.708;2022-09-01T18:47:15;0.97;;;0.70;;
60859;SDS011;46694;54.382;9.708;2022-09-01T18:50:13;0.80;;;0.70;;
60859;SDS011;46694;54.382;9.708;2022-09-01T18:56:19;0.70;;;0.50;;
60859;SDS011;46694;54.382;9.708;2022-09-01T19:05:02;1.13;;;0.80;;
60859;SDS011;46694;54.382;9.708;2022-09-01T19:16:55;6.30;;;0.70;;
60859;SDS011;46694;54.382;9.708;2022-09-01T19:20:10;1.27;;;0.40;;
60859;SDS011;46694;54.382;9.708;2022-09-01T19:26:03;2.60;;;1.07;;